»·PEaware :: N909CH KVCV-KVNY

N909CH :: KVCV-KVNY

FLIGHT INFORMATION

Flight Status: Arrived
Operator: Privately registered:
United States
More flights under this callsign
Pilot: Jeremy H. (10741)
Aircraft: SOCATA TBM-900
(TBM9)
More flights by this aircraft type
Origin: KVCV Socal Logistics
United States
Destination: KVNY Van Nuys
United States
More flights between these airports :: More routes between these airports
Route: PMD JANNY5
File this flight plan on PilotEdge
Remarks:
Altitude:
(Current/Filed)
14,000ft
Speed:
(Current/Filed)
250kts
Departed: 25-Feb-19 02:36 PM
Arrived: 25-Feb-19 03:06 PM
Distance/Time
Traveled:
60nm/0:30
Distance/Time
To Go:
Arrived

Flight Plot

Page will automatically refresh every two minutes.

Flight plan parsing failed; only flown route is shown


Map Options




Map Legend


Flown Route
Filed Route
Departure Airport
Arrival Airport
Navaid (VOR, NDB)
Fix

Horizontal Profiles

Position Reports

Time Latitude Longitude Heading Altitude Ground
Speed
25-Feb-19 14:16 34.589893 -117.373375 315 2864ft 0kts
25-Feb-19 14:17 34.589893 -117.373375 315 2864ft 0kts
25-Feb-19 14:18 34.589893 -117.373375 315 2864ft 0kts
25-Feb-19 14:19 34.589893 -117.373375 315 2864ft 0kts
25-Feb-19 14:20 34.589893 -117.373375 315 2864ft 0kts
25-Feb-19 14:21 34.589893 -117.373375 315 2864ft 0kts
25-Feb-19 14:22 34.589893 -117.373375 315 2864ft 0kts
25-Feb-19 14:23 34.589893 -117.373375 315 2864ft 0kts
25-Feb-19 14:24 34.589893 -117.373375 315 2864ft 0kts
25-Feb-19 14:25 34.589893 -117.373375 315 2864ft 0kts
25-Feb-19 14:26 34.589893 -117.373375 315 2864ft 0kts
25-Feb-19 14:27 34.589893 -117.373375 315 2864ft 0kts
25-Feb-19 14:28 34.590380 -117.373955 315 2864ft 7kts
25-Feb-19 14:30 34.592752 -117.372953 44 2861ft 16kts
25-Feb-19 14:31 34.593286 -117.369380 89 2857ft 12kts
25-Feb-19 14:32 34.595281 -117.367516 10 2850ft 14kts
25-Feb-19 14:33 34.598997 -117.366634 10 2843ft 8kts
25-Feb-19 14:34 34.599072 -117.366618 9 2843ft 0kts
25-Feb-19 14:35 34.599972 -117.366465 358 2841ft 10kts
25-Feb-19 14:36 34.591588 -117.376905 225 3096ft 123kts
25-Feb-19 14:37 34.574002 -117.411376 281 5436ft 127kts
25-Feb-19 14:38 34.591589 -117.447673 303 7929ft 129kts
25-Feb-19 14:39 34.619830 -117.472058 323 10469ft 136kts
25-Feb-19 14:40 34.616082 -117.512167 248 12747ft 139kts
25-Feb-19 14:41 34.607163 -117.560268 273 14060ft 184kts
25-Feb-19 14:42 34.610380 -117.632847 274 14027ft 233kts
25-Feb-19 14:43 34.614436 -117.713817 274 14016ft 244kts
25-Feb-19 14:44 34.618593 -117.797716 274 14012ft 254kts
25-Feb-19 14:45 34.622832 -117.884497 273 14007ft 258kts
25-Feb-19 14:46 34.627027 -117.971645 273 14010ft 259kts
25-Feb-19 14:47 34.631141 -118.059263 273 14015ft 259kts
25-Feb-19 14:47 34.634508 -118.132362 273 14016ft 259kts
25-Feb-19 14:49 34.623400 -118.233448 259 14012ft 260kts
25-Feb-19 14:50 34.607512 -118.319533 259 14008ft 261kts
25-Feb-19 14:50 34.594250 -118.391421 259 14020ft 260kts
25-Feb-19 14:51 34.579308 -118.471643 259 13348ft 230kts
25-Feb-19 14:53 34.532280 -118.534839 198 12243ft 239kts
25-Feb-19 14:53 34.476807 -118.536242 179 11238ft 238kts
25-Feb-19 14:54 34.415770 -118.530135 179 10173ft 206kts
25-Feb-19 14:55 34.367165 -118.548614 246 8336ft 195kts
25-Feb-19 14:56 34.393161 -118.597748 354 6572ft 208kts
25-Feb-19 14:57 34.428371 -118.553418 79 4801ft 205kts
25-Feb-19 14:58 34.452840 -118.500968 130 4557ft 190kts
25-Feb-19 14:59 34.405058 -118.501822 194 4557ft 169kts
25-Feb-19 15:00 34.362886 -118.506023 173 4537ft 141kts
25-Feb-19 15:01 34.325547 -118.500886 173 4235ft 137kts
25-Feb-19 15:02 34.283961 -118.497351 175 2963ft 160kts
25-Feb-19 15:03 34.248452 -118.494362 171 1816ft 100kts
25-Feb-19 15:04 34.222486 -118.491568 176 1033ft 99kts
25-Feb-19 15:05 34.206720 -118.489663 93 805ft 9kts
25-Feb-19 15:06 34.206739 -118.489186 84 805ft 0kts
25-Feb-19 15:07 34.206762 -118.488761 88 805ft 4kts
25-Feb-19 15:08 34.205386 -118.487784 142 805ft 7kts
25-Feb-19 15:09 34.205040 -118.487727 273 805ft 0kts

Navigation Log

Ident Type
Flight plan parsing failed, navigation log unavailable